createdAt,value
2022-10-18T00:03:26.838Z,972.2
2022-10-18T00:08:28.582Z,972.21
2022-10-18T00:13:30.368Z,972.06
2022-10-18T00:18:31.654Z,972.07
2022-10-18T00:23:33.686Z,972.07
2022-10-18T00:28:35.307Z,972.12
2022-10-18T00:33:36.420Z,972.13
2022-10-18T00:38:38.324Z,972.14
2022-10-18T00:43:39.718Z,972.14
2022-10-18T00:48:41.875Z,972.09
2022-10-18T00:53:43.488Z,972.05
2022-10-18T00:58:44.785Z,971.94
2022-10-18T01:03:46.351Z,971.89
2022-10-18T01:08:47.647Z,971.89
2022-10-18T01:13:48.975Z,971.91
2022-10-18T01:18:50.363Z,971.94
2022-10-18T01:23:52.245Z,971.95
2022-10-18T01:28:53.713Z,971.93
2022-10-18T01:33:55.048Z,971.97
2022-10-18T01:38:56.271Z,971.92
2022-10-18T01:43:57.563Z,971.99
2022-10-18T01:48:58.921Z,972
2022-10-18T01:54:00.239Z,972.1
2022-10-18T01:59:01.707Z,972.12
2022-10-18T02:04:03.764Z,971.99
2022-10-18T02:09:05.794Z,972.02
2022-10-18T02:14:07.773Z,972.1
2022-10-18T02:19:09.272Z,972.08
2022-10-18T02:24:11.096Z,972.04
2022-10-18T02:29:13.342Z,971.95
2022-10-18T02:34:15.479Z,971.98
2022-10-18T02:39:17.349Z,972
2022-10-18T02:44:19.494Z,972.13
2022-10-18T02:49:21.335Z,972.11
2022-10-18T02:54:22.856Z,972.11
2022-10-18T02:59:24.919Z,972.07
2022-10-18T03:09:28.363Z,972.08
2022-10-18T03:14:30.368Z,972.19
2022-10-18T03:19:32.166Z,972.13
2022-10-18T03:24:33.926Z,972.14
2022-10-18T03:29:35.901Z,972.22
2022-10-18T03:34:37.510Z,972.17
2022-10-18T03:39:39.406Z,972.13
2022-10-18T03:44:40.700Z,972.12
2022-10-18T03:49:42.066Z,972.19
2022-10-18T03:54:43.754Z,972.3
2022-10-18T03:59:45.910Z,972.33
2022-10-18T04:04:47.104Z,972.24
2022-10-18T04:09:48.606Z,972.22
2022-10-18T04:14:50.175Z,972.29
2022-10-18T04:19:51.616Z,972.28
2022-10-18T04:24:53.662Z,972.3
2022-10-18T04:29:55.753Z,972.31
2022-10-18T04:34:57.058Z,972.29
2022-10-18T04:39:58.572Z,972.3
2022-10-18T04:45:00.576Z,972.23
2022-10-18T04:50:01.987Z,972.25
2022-10-18T04:55:03.577Z,972.14
2022-10-18T05:00:05.335Z,972.08
2022-10-18T05:05:09.127Z,972.03
2022-10-18T05:10:09.118Z,972.16
2022-10-18T05:15:10.800Z,972.26
2022-10-18T05:25:14.480Z,972.11
2022-10-18T05:30:15.767Z,972
2022-10-18T05:35:17.746Z,971.94
2022-10-18T05:40:19.837Z,972
2022-10-18T05:45:21.176Z,972.06
2022-10-18T05:50:22.753Z,972.25
2022-10-18T05:55:24.113Z,972.24
2022-10-18T06:00:25.523Z,972.35
2022-10-18T06:05:27.350Z,972.33
2022-10-18T06:10:29.201Z,972.2
2022-10-18T06:15:30.739Z,972.19
2022-10-18T06:20:32.389Z,972.11
2022-10-18T06:25:34.250Z,972.2
2022-10-18T06:30:36.281Z,972.19
2022-10-18T06:35:37.565Z,972.28
2022-10-18T06:40:38.864Z,972.27
2022-10-18T06:45:40.629Z,972.33
2022-10-18T06:50:41.848Z,972.43
2022-10-18T06:55:43.462Z,972.5
2022-10-18T07:00:45.064Z,972.37
2022-10-18T07:05:46.694Z,972.58
2022-10-18T07:10:48.204Z,972.59
2022-10-18T07:15:49.412Z,972.63
2022-10-18T07:20:50.714Z,972.6
2022-10-18T07:25:52.593Z,972.62
2022-10-18T07:30:54.570Z,972.61
2022-10-18T07:35:55.960Z,972.64
2022-10-18T07:40:58.112Z,972.64
2022-10-18T07:46:00.025Z,972.65
2022-10-18T07:51:01.746Z,972.64
2022-10-18T07:56:05.771Z,972.59
2022-10-18T08:01:04.989Z,972.61
2022-10-18T08:06:06.786Z,972.52
2022-10-18T08:11:07.902Z,972.6
2022-10-18T08:16:09.238Z,972.65
2022-10-18T08:21:11.041Z,972.71
2022-10-18T08:26:13.036Z,972.8
2022-10-18T08:31:14.814Z,972.75
2022-10-18T08:36:16.721Z,972.72
2022-10-18T08:41:18.423Z,972.54
2022-10-18T08:46:19.779Z,972.51
2022-10-18T08:51:20.995Z,972.63
2022-10-18T08:56:22.154Z,972.51
2022-10-18T09:01:23.404Z,972.56
2022-10-18T09:06:24.818Z,972.61
2022-10-18T09:11:26.722Z,972.55
2022-10-18T09:16:28.262Z,972.48
2022-10-18T09:21:29.670Z,972.56
2022-10-18T09:26:31.508Z,972.56
2022-10-18T09:31:32.976Z,972.59
2022-10-18T09:36:34.513Z,972.5
2022-10-18T09:41:36.114Z,972.51
2022-10-18T09:46:38.167Z,972.53
2022-10-18T09:51:39.724Z,972.51
2022-10-18T09:56:41.886Z,972.51
2022-10-18T10:01:42.412Z,972.47
2022-10-18T10:26:50.535Z,972.16
2022-10-18T10:36:53.568Z,972.2
2022-10-18T10:41:54.866Z,972.2
2022-10-18T11:07:03.864Z,971.99
2022-10-18T11:12:05.707Z,971.99
2022-10-18T11:27:11.647Z,971.9
2022-10-18T11:32:13.816Z,971.89
2022-10-18T11:37:27.549Z,971.87
2022-10-18T11:42:17.055Z,971.77
2022-10-18T11:47:18.404Z,971.71
2022-10-18T11:52:26.524Z,971.68
2022-10-18T11:57:28.617Z,971.65
2022-10-18T12:02:30.691Z,971.51
2022-10-18T12:07:32.552Z,971.45
2022-10-18T12:12:34.384Z,971.44
2022-10-18T12:17:47.637Z,971.37
2022-10-18T12:22:36.738Z,971.27
2022-10-18T12:27:38.855Z,971.22
2022-10-18T12:32:40.244Z,971.21
2022-10-18T12:37:41.441Z,971.18
2022-10-18T12:42:43.282Z,971.2
2022-10-18T12:47:44.626Z,971.1
2022-10-18T12:52:46.393Z,971.09
2022-10-18T12:57:47.605Z,971.08
2022-10-18T13:02:49.097Z,971.09
2022-10-18T13:07:50.832Z,971.08
2022-10-18T13:12:52.356Z,971.01
2022-10-18T13:17:53.871Z,971.03
2022-10-18T13:22:55.920Z,971.05
2022-10-18T13:27:57.428Z,971.03
2022-10-18T13:32:59.446Z,971
2022-10-18T13:38:00.791Z,970.94
2022-10-18T13:43:01.927Z,970.95
2022-10-18T13:48:03.745Z,970.99
2022-10-18T13:53:05.136Z,971.03
2022-10-18T13:58:06.421Z,971.08
2022-10-18T14:03:12.772Z,971.1
2022-10-18T14:08:10.580Z,971.03
2022-10-18T14:13:10.886Z,971.04
2022-10-18T14:18:12.673Z,971.06
2022-10-18T14:23:14.368Z,971.06
2022-10-18T14:28:16.259Z,971.06
2022-10-18T14:33:17.994Z,971.02
2022-10-18T14:38:19.317Z,971.02
2022-10-18T14:43:20.526Z,971.09
2022-10-18T14:48:21.999Z,971.05
2022-10-18T14:53:23.241Z,971.03
2022-10-18T14:58:25.288Z,971.09
2022-10-18T15:03:27.355Z,971.17
2022-10-18T15:08:29.358Z,971.16
2022-10-18T15:13:30.904Z,971.2
2022-10-18T15:18:32.158Z,971.22
2022-10-18T15:23:33.617Z,971.18
2022-10-18T15:28:35.789Z,971.22
2022-10-18T15:33:37.133Z,971.29
2022-10-18T15:38:39.324Z,971.35
2022-10-18T15:43:40.946Z,971.32
2022-10-18T15:48:42.983Z,971.24
2022-10-18T15:53:44.166Z,971.29
2022-10-18T15:58:45.676Z,971.34
2022-10-18T16:03:47.034Z,971.28
2022-10-18T16:08:48.951Z,971.27
2022-10-18T16:13:50.740Z,971.27
2022-10-18T16:18:52.516Z,971.33
2022-10-18T16:23:53.970Z,971.34
2022-10-18T16:28:55.317Z,971.45
2022-10-18T16:33:57.118Z,971.49
2022-10-18T16:38:58.716Z,971.53
2022-10-18T16:44:00.379Z,971.68
2022-10-18T16:49:02.210Z,971.74
2022-10-18T16:54:04.203Z,971.8
2022-10-18T16:59:05.721Z,971.88
2022-10-18T17:04:07.935Z,971.91
2022-10-18T17:09:09.451Z,971.91
2022-10-18T17:14:10.669Z,972
2022-10-18T17:19:12.045Z,972.06
2022-10-18T17:24:14.128Z,971.99
2022-10-18T17:29:16.030Z,972.03
2022-10-18T17:34:21.140Z,972.07
2022-10-18T17:39:18.889Z,972.09
2022-10-18T17:44:20.891Z,972.17
2022-10-18T17:49:22.202Z,972.2
2022-10-18T17:54:24.081Z,972.29
2022-10-18T17:59:25.950Z,972.31
2022-10-18T18:04:27.429Z,972.32
2022-10-18T18:09:29.182Z,972.35
2022-10-18T18:14:30.580Z,972.31
2022-10-18T18:19:32.554Z,972.31
2022-10-18T18:24:34.549Z,972.3
2022-10-18T18:29:35.865Z,972.32
2022-10-18T18:34:37.931Z,972.37
2022-10-18T18:39:39.502Z,972.45
2022-10-18T18:44:40.790Z,972.42
2022-10-18T18:49:42.398Z,972.45
2022-10-18T18:54:44.430Z,972.54
2022-10-18T18:59:46.222Z,972.53
2022-10-18T19:04:48.084Z,972.52
2022-10-18T19:09:50.008Z,972.51
2022-10-18T19:14:51.404Z,972.51
2022-10-18T19:19:53.411Z,972.48
2022-10-18T19:24:54.611Z,972.48
2022-10-18T19:29:56.050Z,972.52
2022-10-18T19:34:57.850Z,972.47
2022-10-18T19:39:59.491Z,972.44
2022-10-18T19:45:00.950Z,972.42
2022-10-18T19:50:02.216Z,972.41
2022-10-18T19:55:03.514Z,972.45
2022-10-18T20:00:06.749Z,972.47
2022-10-18T20:05:07.306Z,972.47
2022-10-18T20:10:09.326Z,972.49
2022-10-18T20:15:11.187Z,972.49
2022-10-18T20:20:12.863Z,972.5
2022-10-18T20:25:14.356Z,972.53
2022-10-18T20:30:16.132Z,972.61
2022-10-18T20:35:17.867Z,972.57
2022-10-18T20:40:19.796Z,972.57
2022-10-18T20:45:21.027Z,972.63
2022-10-18T20:50:22.684Z,972.62
2022-10-18T20:55:24.093Z,972.6
2022-10-18T21:00:25.851Z,972.67
2022-10-18T21:05:27.192Z,972.66
2022-10-18T21:10:28.657Z,972.67
2022-10-18T21:15:30.538Z,972.65
2022-10-18T21:20:32.339Z,972.61
2022-10-18T21:25:34.278Z,972.62
2022-10-18T21:30:36.295Z,972.56
2022-10-18T21:35:37.617Z,972.57
2022-10-18T21:40:39.519Z,972.6
2022-10-18T21:45:41.456Z,972.51
2022-10-18T21:50:43.249Z,972.49
2022-10-18T21:55:44.930Z,972.48
2022-10-18T22:15:51.182Z,972.28
2022-10-18T22:20:52.613Z,972.26
2022-10-18T22:25:54.137Z,972.2
2022-10-18T22:30:55.550Z,972.19
2022-10-18T22:35:57.236Z,972.13
2022-10-18T22:40:58.876Z,972.16
2022-10-18T22:46:01.062Z,972.11
2022-10-18T22:51:02.442Z,972.14
2022-10-18T22:56:03.897Z,972.1
2022-10-18T23:01:05.572Z,972.13
2022-10-18T23:06:07.313Z,972.1
2022-10-18T23:11:09.102Z,972.07
2022-10-18T23:16:11.186Z,972.05
2022-10-18T23:21:13.257Z,972.04
2022-10-18T23:26:14.527Z,972.04
2022-10-18T23:31:16.623Z,972.05
2022-10-18T23:36:17.813Z,972.05
2022-10-18T23:41:19.004Z,971.99
2022-10-18T23:46:21.094Z,971.99
2022-10-18T23:51:22.645Z,972.05
2022-10-18T23:56:24.551Z,972.02
